sensor_id;sensor_type;location;lat;lon;timestamp;P1;durP1;ratioP1;P2;durP2;ratioP2
62056;SDS011;48016;50.284;18.860;2022-09-29T00:00:44;13.50;;;6.70;;
62056;SDS011;48016;50.284;18.860;2022-09-29T00:03:31;10.60;;;6.00;;
62056;SDS011;48016;50.284;18.860;2022-09-29T00:06:16;11.60;;;6.50;;
62056;SDS011;48016;50.284;18.860;2022-09-29T00:09:02;12.50;;;6.10;;
62056;SDS011;48016;50.284;18.860;2022-09-29T00:11:46;11.60;;;6.40;;
62056;SDS011;48016;50.284;18.860;2022-09-29T00:14:30;13.00;;;6.90;;
62056;SDS011;48016;50.284;18.860;2022-09-29T00:17:14;13.20;;;7.10;;
62056;SDS011;48016;50.284;18.860;2022-09-29T00:19:58;15.00;;;7.70;;
62056;SDS011;48016;50.284;18.860;2022-09-29T00:22:43;14.00;;;6.80;;
62056;SDS011;48016;50.284;18.860;2022-09-29T00:25:27;13.60;;;7.70;;
62056;SDS011;48016;50.284;18.860;2022-09-29T00:28:12;13.60;;;8.00;;
62056;SDS011;48016;50.284;18.860;2022-09-29T00:30:59;14.60;;;7.70;;
62056;SDS011;48016;50.284;18.860;2022-09-29T00:33:44;18.20;;;10.20;;
62056;SDS011;48016;50.284;18.860;2022-09-29T00:36:28;16.20;;;9.50;;
62056;SDS011;48016;50.284;18.860;2022-09-29T00:39:13;16.40;;;10.10;;
62056;SDS011;48016;50.284;18.860;2022-09-29T00:41:57;16.50;;;11.50;;
62056;SDS011;48016;50.284;18.860;2022-09-29T00:47:46;21.90;;;11.70;;
62056;SDS011;48016;50.284;18.860;2022-09-29T00:50:41;21.90;;;12.40;;
62056;SDS011;48016;50.284;18.860;2022-09-29T00:53:30;23.60;;;14.10;;
62056;SDS011;48016;50.284;18.860;2022-09-29T00:56:15;17.60;;;12.00;;
62056;SDS011;48016;50.284;18.860;2022-09-29T00:59:02;19.80;;;12.60;;
62056;SDS011;48016;50.284;18.860;2022-09-29T01:01:50;18.10;;;11.90;;
62056;SDS011;48016;50.284;18.860;2022-09-29T01:04:35;21.40;;;11.50;;
62056;SDS011;48016;50.284;18.860;2022-09-29T01:07:20;17.50;;;11.00;;
62056;SDS011;48016;50.284;18.860;2022-09-29T01:10:06;18.40;;;10.80;;
62056;SDS011;48016;50.284;18.860;2022-09-29T01:12:51;16.70;;;10.10;;
62056;SDS011;48016;50.284;18.860;2022-09-29T01:15:36;16.60;;;10.10;;
62056;SDS011;48016;50.284;18.860;2022-09-29T01:18:21;17.30;;;11.20;;
62056;SDS011;48016;50.284;18.860;2022-09-29T01:27:15;16.60;;;10.10;;
62056;SDS011;48016;50.284;18.860;2022-09-29T01:30:17;18.40;;;11.30;;
62056;SDS011;48016;50.284;18.860;2022-09-29T01:33:06;18.40;;;12.70;;
62056;SDS011;48016;50.284;18.860;2022-09-29T01:39:01;17.00;;;11.90;;
62056;SDS011;48016;50.284;18.860;2022-09-29T01:41:58;16.40;;;10.50;;
62056;SDS011;48016;50.284;18.860;2022-09-29T01:48:01;16.60;;;10.40;;
62056;SDS011;48016;50.284;18.860;2022-09-29T01:50:51;16.50;;;11.20;;
62056;SDS011;48016;50.284;18.860;2022-09-29T01:53:42;14.90;;;10.10;;
62056;SDS011;48016;50.284;18.860;2022-09-29T01:56:32;17.00;;;10.00;;
62056;SDS011;48016;50.284;18.860;2022-09-29T01:59:28;17.20;;;10.60;;
62056;SDS011;48016;50.284;18.860;2022-09-29T02:02:20;16.80;;;10.80;;
62056;SDS011;48016;50.284;18.860;2022-09-29T02:05:20;18.70;;;11.50;;
62056;SDS011;48016;50.284;18.860;2022-09-29T02:08:10;16.60;;;11.00;;
62056;SDS011;48016;50.284;18.860;2022-09-29T02:11:02;18.00;;;10.20;;
62056;SDS011;48016;50.284;18.860;2022-09-29T02:13:49;14.30;;;9.30;;
62056;SDS011;48016;50.284;18.860;2022-09-29T02:16:39;13.30;;;10.00;;
62056;SDS011;48016;50.284;18.860;2022-09-29T02:19:30;13.90;;;9.20;;
62056;SDS011;48016;50.284;18.860;2022-09-29T02:22:19;15.60;;;9.10;;
62056;SDS011;48016;50.284;18.860;2022-09-29T02:25:04;18.30;;;11.10;;
62056;SDS011;48016;50.284;18.860;2022-09-29T02:27:53;14.90;;;10.10;;
62056;SDS011;48016;50.284;18.860;2022-09-29T02:30:38;17.40;;;9.80;;
62056;SDS011;48016;50.284;18.860;2022-09-29T02:33:23;16.00;;;10.10;;
62056;SDS011;48016;50.284;18.860;2022-09-29T02:42:37;14.40;;;10.50;;
62056;SDS011;48016;50.284;18.860;2022-09-29T02:48:55;15.00;;;9.30;;
62056;SDS011;48016;50.284;18.860;2022-09-29T02:51:54;17.50;;;9.70;;
62056;SDS011;48016;50.284;18.860;2022-09-29T02:57:58;16.10;;;10.10;;
62056;SDS011;48016;50.284;18.860;2022-09-29T03:00:52;13.50;;;9.40;;
62056;SDS011;48016;50.284;18.860;2022-09-29T03:03:37;15.30;;;9.00;;
62056;SDS011;48016;50.284;18.860;2022-09-29T03:06:21;14.00;;;10.00;;
62056;SDS011;48016;50.284;18.860;2022-09-29T03:09:05;15.00;;;9.90;;
62056;SDS011;48016;50.284;18.860;2022-09-29T03:11:49;15.40;;;9.20;;
62056;SDS011;48016;50.284;18.860;2022-09-29T03:14:33;18.30;;;11.80;;
62056;SDS011;48016;50.284;18.860;2022-09-29T03:17:17;17.40;;;10.90;;
62056;SDS011;48016;50.284;18.860;2022-09-29T03:20:01;15.60;;;10.30;;
62056;SDS011;48016;50.284;18.860;2022-09-29T03:22:46;16.40;;;9.80;;
62056;SDS011;48016;50.284;18.860;2022-09-29T03:25:30;17.10;;;9.60;;
62056;SDS011;48016;50.284;18.860;2022-09-29T03:28:14;16.40;;;9.80;;
62056;SDS011;48016;50.284;18.860;2022-09-29T03:31:03;13.40;;;9.30;;
62056;SDS011;48016;50.284;18.860;2022-09-29T03:33:52;15.50;;;9.60;;
62056;SDS011;48016;50.284;18.860;2022-09-29T03:36:36;15.20;;;9.70;;
62056;SDS011;48016;50.284;18.860;2022-09-29T03:39:20;16.10;;;9.00;;
62056;SDS011;48016;50.284;18.860;2022-09-29T03:42:04;15.50;;;9.50;;
62056;SDS011;48016;50.284;18.860;2022-09-29T03:44:48;16.50;;;9.80;;
62056;SDS011;48016;50.284;18.860;2022-09-29T03:47:34;24.60;;;10.10;;
62056;SDS011;48016;50.284;18.860;2022-09-29T03:50:18;14.00;;;10.50;;
62056;SDS011;48016;50.284;18.860;2022-09-29T03:53:02;14.40;;;9.70;;
62056;SDS011;48016;50.284;18.860;2022-09-29T03:55:48;15.20;;;9.00;;
62056;SDS011;48016;50.284;18.860;2022-09-29T03:58:33;14.10;;;9.20;;
62056;SDS011;48016;50.284;18.860;2022-09-29T04:01:17;14.80;;;8.70;;
62056;SDS011;48016;50.284;18.860;2022-09-29T04:03:47;13.30;;;8.60;;
62056;SDS011;48016;50.284;18.860;2022-09-29T04:06:16;15.50;;;9.30;;
62056;SDS011;48016;50.284;18.860;2022-09-29T04:08:46;12.70;;;8.70;;
62056;SDS011;48016;50.284;18.860;2022-09-29T04:11:17;18.30;;;9.80;;
62056;SDS011;48016;50.284;18.860;2022-09-29T04:13:47;13.50;;;8.80;;
62056;SDS011;48016;50.284;18.860;2022-09-29T04:16:16;19.00;;;9.50;;
62056;SDS011;48016;50.284;18.860;2022-09-29T04:18:46;15.60;;;9.80;;
62056;SDS011;48016;50.284;18.860;2022-09-29T04:21:15;15.10;;;8.80;;
62056;SDS011;48016;50.284;18.860;2022-09-29T04:23:45;15.50;;;9.10;;
62056;SDS011;48016;50.284;18.860;2022-09-29T04:26:16;16.60;;;8.70;;
62056;SDS011;48016;50.284;18.860;2022-09-29T04:28:46;15.70;;;9.20;;
62056;SDS011;48016;50.284;18.860;2022-09-29T04:31:16;14.10;;;9.90;;
62056;SDS011;48016;50.284;18.860;2022-09-29T04:33:45;15.00;;;8.70;;
62056;SDS011;48016;50.284;18.860;2022-09-29T04:36:15;16.60;;;9.60;;
62056;SDS011;48016;50.284;18.860;2022-09-29T04:38:44;15.00;;;9.20;;
62056;SDS011;48016;50.284;18.860;2022-09-29T04:41:14;16.00;;;9.60;;
62056;SDS011;48016;50.284;18.860;2022-09-29T04:43:43;15.40;;;9.30;;
62056;SDS011;48016;50.284;18.860;2022-09-29T04:46:13;16.70;;;10.40;;
62056;SDS011;48016;50.284;18.860;2022-09-29T04:48:43;17.70;;;10.00;;
62056;SDS011;48016;50.284;18.860;2022-09-29T04:51:13;17.20;;;10.30;;
62056;SDS011;48016;50.284;18.860;2022-09-29T04:53:42;18.70;;;10.60;;
62056;SDS011;48016;50.284;18.860;2022-09-29T04:56:12;17.00;;;10.80;;
62056;SDS011;48016;50.284;18.860;2022-09-29T04:58:41;27.10;;;12.70;;
62056;SDS011;48016;50.284;18.860;2022-09-29T05:01:11;24.20;;;15.10;;
62056;SDS011;48016;50.284;18.860;2022-09-29T05:03:41;20.00;;;12.90;;
62056;SDS011;48016;50.284;18.860;2022-09-29T05:06:11;21.60;;;12.50;;
62056;SDS011;48016;50.284;18.860;2022-09-29T05:08:40;21.80;;;13.90;;
62056;SDS011;48016;50.284;18.860;2022-09-29T05:11:10;17.90;;;11.60;;
62056;SDS011;48016;50.284;18.860;2022-09-29T05:13:39;18.10;;;11.80;;
62056;SDS011;48016;50.284;18.860;2022-09-29T05:16:09;15.90;;;10.50;;
62056;SDS011;48016;50.284;18.860;2022-09-29T05:18:38;15.90;;;10.20;;
62056;SDS011;48016;50.284;18.860;2022-09-29T05:21:08;20.70;;;11.20;;
62056;SDS011;48016;50.284;18.860;2022-09-29T05:23:38;19.60;;;10.20;;
62056;SDS011;48016;50.284;18.860;2022-09-29T05:26:08;16.90;;;10.80;;
62056;SDS011;48016;50.284;18.860;2022-09-29T05:28:42;18.70;;;11.50;;
62056;SDS011;48016;50.284;18.860;2022-09-29T05:31:13;17.80;;;10.30;;
62056;SDS011;48016;50.284;18.860;2022-09-29T05:33:43;17.40;;;11.30;;
62056;SDS011;48016;50.284;18.860;2022-09-29T05:36:13;18.20;;;11.10;;
62056;SDS011;48016;50.284;18.860;2022-09-29T05:38:42;19.90;;;11.40;;
62056;SDS011;48016;50.284;18.860;2022-09-29T05:41:12;17.10;;;10.40;;
62056;SDS011;48016;50.284;18.860;2022-09-29T05:43:41;16.30;;;10.20;;
62056;SDS011;48016;50.284;18.860;2022-09-29T05:46:11;16.20;;;10.00;;
62056;SDS011;48016;50.284;18.860;2022-09-29T05:48:41;18.70;;;11.70;;
62056;SDS011;48016;50.284;18.860;2022-09-29T05:51:15;16.40;;;11.10;;
62056;SDS011;48016;50.284;18.860;2022-09-29T05:53:46;19.10;;;11.80;;
62056;SDS011;48016;50.284;18.860;2022-09-29T05:56:17;18.70;;;11.20;;
62056;SDS011;48016;50.284;18.860;2022-09-29T05:58:48;19.10;;;12.10;;
62056;SDS011;48016;50.284;18.860;2022-09-29T06:01:24;21.30;;;11.50;;
62056;SDS011;48016;50.284;18.860;2022-09-29T06:03:55;19.60;;;11.90;;
62056;SDS011;48016;50.284;18.860;2022-09-29T06:06:25;19.40;;;13.00;;
62056;SDS011;48016;50.284;18.860;2022-09-29T06:08:56;18.60;;;11.70;;
62056;SDS011;48016;50.284;18.860;2022-09-29T06:11:28;18.80;;;11.90;;
62056;SDS011;48016;50.284;18.860;2022-09-29T06:14:01;20.20;;;13.20;;
62056;SDS011;48016;50.284;18.860;2022-09-29T06:16:31;19.90;;;11.90;;
62056;SDS011;48016;50.284;18.860;2022-09-29T06:19:00;19.20;;;12.00;;
62056;SDS011;48016;50.284;18.860;2022-09-29T06:21:31;19.20;;;10.80;;
62056;SDS011;48016;50.284;18.860;2022-09-29T06:24:03;23.50;;;11.50;;
62056;SDS011;48016;50.284;18.860;2022-09-29T06:26:35;19.10;;;12.20;;
62056;SDS011;48016;50.284;18.860;2022-09-29T06:29:04;18.30;;;11.20;;
62056;SDS011;48016;50.284;18.860;2022-09-29T06:31:34;17.20;;;9.90;;
62056;SDS011;48016;50.284;18.860;2022-09-29T06:34:04;15.50;;;10.10;;
62056;SDS011;48016;50.284;18.860;2022-09-29T06:36:41;16.80;;;10.30;;
62056;SDS011;48016;50.284;18.860;2022-09-29T06:39:30;17.50;;;10.20;;
62056;SDS011;48016;50.284;18.860;2022-09-29T06:42:00;15.20;;;9.50;;
62056;SDS011;48016;50.284;18.860;2022-09-29T06:44:31;17.00;;;10.00;;
62056;SDS011;48016;50.284;18.860;2022-09-29T06:46:59;14.40;;;9.60;;
62056;SDS011;48016;50.284;18.860;2022-09-29T06:49:28;15.60;;;9.80;;
62056;SDS011;48016;50.284;18.860;2022-09-29T06:51:58;13.60;;;9.10;;
62056;SDS011;48016;50.284;18.860;2022-09-29T06:54:27;14.20;;;8.30;;
62056;SDS011;48016;50.284;18.860;2022-09-29T06:56:57;12.90;;;7.90;;
62056;SDS011;48016;50.284;18.860;2022-09-29T06:59:26;12.00;;;7.30;;
62056;SDS011;48016;50.284;18.860;2022-09-29T07:01:56;12.30;;;7.60;;
62056;SDS011;48016;50.284;18.860;2022-09-29T07:04:26;13.10;;;8.10;;
62056;SDS011;48016;50.284;18.860;2022-09-29T07:06:56;11.00;;;7.40;;
62056;SDS011;48016;50.284;18.860;2022-09-29T07:09:25;13.60;;;7.60;;
62056;SDS011;48016;50.284;18.860;2022-09-29T07:11:55;9.80;;;6.20;;
62056;SDS011;48016;50.284;18.860;2022-09-29T07:14:24;9.70;;;6.70;;
62056;SDS011;48016;50.284;18.860;2022-09-29T07:16:54;11.70;;;8.00;;
62056;SDS011;48016;50.284;18.860;2022-09-29T07:19:24;14.10;;;8.40;;
62056;SDS011;48016;50.284;18.860;2022-09-29T07:21:54;11.40;;;7.60;;
62056;SDS011;48016;50.284;18.860;2022-09-29T07:24:23;12.20;;;7.30;;
62056;SDS011;48016;50.284;18.860;2022-09-29T07:26:54;13.30;;;7.60;;
62056;SDS011;48016;50.284;18.860;2022-09-29T07:29:24;10.70;;;6.60;;
62056;SDS011;48016;50.284;18.860;2022-09-29T07:31:53;11.50;;;6.40;;
62056;SDS011;48016;50.284;18.860;2022-09-29T07:34:23;9.40;;;6.20;;
62056;SDS011;48016;50.284;18.860;2022-09-29T07:36:53;12.90;;;6.80;;
62056;SDS011;48016;50.284;18.860;2022-09-29T07:39:22;11.00;;;7.70;;
62056;SDS011;48016;50.284;18.860;2022-09-29T07:41:55;11.80;;;7.80;;
62056;SDS011;48016;50.284;18.860;2022-09-29T07:44:26;18.90;;;8.50;;
62056;SDS011;48016;50.284;18.860;2022-09-29T07:46:56;15.30;;;7.80;;
62056;SDS011;48016;50.284;18.860;2022-09-29T07:49:26;14.30;;;7.80;;
62056;SDS011;48016;50.284;18.860;2022-09-29T07:51:55;14.20;;;7.70;;
62056;SDS011;48016;50.284;18.860;2022-09-29T07:54:25;12.80;;;7.10;;
62056;SDS011;48016;50.284;18.860;2022-09-29T07:56:55;11.30;;;6.70;;
62056;SDS011;48016;50.284;18.860;2022-09-29T07:59:23;11.20;;;6.40;;
62056;SDS011;48016;50.284;18.860;2022-09-29T08:01:53;10.50;;;6.30;;
62056;SDS011;48016;50.284;18.860;2022-09-29T08:04:22;12.00;;;6.30;;
62056;SDS011;48016;50.284;18.860;2022-09-29T08:06:53;10.40;;;6.00;;
62056;SDS011;48016;50.284;18.860;2022-09-29T08:09:22;12.10;;;6.70;;
62056;SDS011;48016;50.284;18.860;2022-09-29T08:11:52;13.60;;;6.70;;
62056;SDS011;48016;50.284;18.860;2022-09-29T08:14:22;10.90;;;6.80;;
62056;SDS011;48016;50.284;18.860;2022-09-29T08:16:52;12.00;;;6.70;;
62056;SDS011;48016;50.284;18.860;2022-09-29T08:19:21;9.60;;;4.80;;
62056;SDS011;48016;50.284;18.860;2022-09-29T08:21:51;9.00;;;4.80;;
62056;SDS011;48016;50.284;18.860;2022-09-29T08:24:21;7.70;;;4.40;;
62056;SDS011;48016;50.284;18.860;2022-09-29T08:26:51;7.50;;;4.10;;
62056;SDS011;48016;50.284;18.860;2022-09-29T08:29:20;8.10;;;3.90;;
62056;SDS011;48016;50.284;18.860;2022-09-29T08:31:50;7.60;;;4.10;;
62056;SDS011;48016;50.284;18.860;2022-09-29T08:34:19;8.90;;;4.40;;
62056;SDS011;48016;50.284;18.860;2022-09-29T08:36:49;9.90;;;5.20;;
62056;SDS011;48016;50.284;18.860;2022-09-29T08:39:20;8.60;;;5.00;;
62056;SDS011;48016;50.284;18.860;2022-09-29T08:44:25;9.80;;;5.90;;
62056;SDS011;48016;50.284;18.860;2022-09-29T08:47:02;9.80;;;5.00;;
62056;SDS011;48016;50.284;18.860;2022-09-29T08:49:38;10.30;;;5.20;;
62056;SDS011;48016;50.284;18.860;2022-09-29T08:52:16;7.50;;;5.10;;
62056;SDS011;48016;50.284;18.860;2022-09-29T08:54:52;8.10;;;4.80;;
62056;SDS011;48016;50.284;18.860;2022-09-29T09:00:17;7.80;;;4.00;;
62056;SDS011;48016;50.284;18.860;2022-09-29T09:14:46;9.70;;;6.40;;
62056;SDS011;48016;50.284;18.860;2022-09-29T09:20:48;8.60;;;5.20;;
62056;SDS011;48016;50.284;18.860;2022-09-29T09:26:37;6.70;;;4.40;;
62056;SDS011;48016;50.284;18.860;2022-09-29T09:31:50;8.60;;;5.30;;
62056;SDS011;48016;50.284;18.860;2022-09-29T09:37:34;11.50;;;5.80;;
62056;SDS011;48016;50.284;18.860;2022-09-29T09:42:38;7.90;;;4.40;;
62056;SDS011;48016;50.284;18.860;2022-09-29T09:45:13;8.60;;;4.30;;
62056;SDS011;48016;50.284;18.860;2022-09-29T09:48:02;6.20;;;4.20;;
62056;SDS011;48016;50.284;18.860;2022-09-29T09:50:38;8.70;;;5.60;;
62056;SDS011;48016;50.284;18.860;2022-09-29T09:53:13;9.40;;;5.50;;
62056;SDS011;48016;50.284;18.860;2022-09-29T09:55:52;9.00;;;5.10;;
62056;SDS011;48016;50.284;18.860;2022-09-29T09:58:37;11.80;;;6.40;;
62056;SDS011;48016;50.284;18.860;2022-09-29T10:01:27;10.20;;;5.90;;
62056;SDS011;48016;50.284;18.860;2022-09-29T10:03:57;10.10;;;6.60;;
62056;SDS011;48016;50.284;18.860;2022-09-29T10:06:28;8.10;;;5.70;;
62056;SDS011;48016;50.284;18.860;2022-09-29T10:09:00;8.20;;;5.80;;
62056;SDS011;48016;50.284;18.860;2022-09-29T10:11:30;9.90;;;6.20;;
62056;SDS011;48016;50.284;18.860;2022-09-29T10:17:01;7.60;;;5.40;;
62056;SDS011;48016;50.284;18.860;2022-09-29T10:22:20;9.20;;;6.10;;
62056;SDS011;48016;50.284;18.860;2022-09-29T10:24:53;7.60;;;5.30;;
62056;SDS011;48016;50.284;18.860;2022-09-29T10:27:40;8.50;;;5.20;;
62056;SDS011;48016;50.284;18.860;2022-09-29T10:30:15;9.40;;;5.80;;
62056;SDS011;48016;50.284;18.860;2022-09-29T10:32:51;7.60;;;4.80;;
62056;SDS011;48016;50.284;18.860;2022-09-29T10:35:31;7.20;;;3.70;;
62056;SDS011;48016;50.284;18.860;2022-09-29T10:38:13;7.10;;;4.00;;
62056;SDS011;48016;50.284;18.860;2022-09-29T10:40:55;7.70;;;4.20;;
62056;SDS011;48016;50.284;18.860;2022-09-29T10:43:36;7.50;;;4.40;;
62056;SDS011;48016;50.284;18.860;2022-09-29T10:49:15;7.10;;;4.10;;
62056;SDS011;48016;50.284;18.860;2022-09-29T10:54:36;5.90;;;4.40;;
62056;SDS011;48016;50.284;18.860;2022-09-29T10:57:12;6.70;;;4.30;;
62056;SDS011;48016;50.284;18.860;2022-09-29T10:59:47;8.00;;;5.00;;
62056;SDS011;48016;50.284;18.860;2022-09-29T11:05:17;8.10;;;5.20;;
62056;SDS011;48016;50.284;18.860;2022-09-29T11:07:56;7.70;;;5.00;;
62056;SDS011;48016;50.284;18.860;2022-09-29T11:10:33;8.20;;;5.30;;
62056;SDS011;48016;50.284;18.860;2022-09-29T11:16:01;8.00;;;5.30;;
62056;SDS011;48016;50.284;18.860;2022-09-29T11:18:34;8.20;;;5.50;;
62056;SDS011;48016;50.284;18.860;2022-09-29T11:29:36;7.00;;;5.20;;
62056;SDS011;48016;50.284;18.860;2022-09-29T11:40:20;7.70;;;4.70;;
62056;SDS011;48016;50.284;18.860;2022-09-29T11:45:44;8.00;;;4.40;;
62056;SDS011;48016;50.284;18.860;2022-09-29T11:48:32;6.60;;;4.40;;
62056;SDS011;48016;50.284;18.860;2022-09-29T11:53:53;9.20;;;5.90;;
62056;SDS011;48016;50.284;18.860;2022-09-29T12:10:31;11.90;;;7.40;;
62056;SDS011;48016;50.284;18.860;2022-09-29T12:16:11;13.60;;;7.40;;
62056;SDS011;48016;50.284;18.860;2022-09-29T12:18:49;18.00;;;8.40;;
62056;SDS011;48016;50.284;18.860;2022-09-29T12:21:35;14.70;;;8.40;;
62056;SDS011;48016;50.284;18.860;2022-09-29T12:24:11;10.50;;;6.80;;
62056;SDS011;48016;50.284;18.860;2022-09-29T12:26:46;9.90;;;5.90;;
62056;SDS011;48016;50.284;18.860;2022-09-29T12:29:37;9.60;;;5.90;;
62056;SDS011;48016;50.284;18.860;2022-09-29T12:32:16;11.20;;;6.60;;
62056;SDS011;48016;50.284;18.860;2022-09-29T12:37:28;17.50;;;8.60;;
62056;SDS011;48016;50.284;18.860;2022-09-29T12:40:26;14.10;;;7.90;;
62056;SDS011;48016;50.284;18.860;2022-09-29T12:43:22;12.00;;;8.10;;
62056;SDS011;48016;50.284;18.860;2022-09-29T12:46:22;12.60;;;8.40;;
62056;SDS011;48016;50.284;18.860;2022-09-29T12:49:08;12.10;;;7.50;;
62056;SDS011;48016;50.284;18.860;2022-09-29T12:51:48;11.30;;;7.70;;
62056;SDS011;48016;50.284;18.860;2022-09-29T12:54:27;10.80;;;7.10;;
62056;SDS011;48016;50.284;18.860;2022-09-29T13:00:10;13.10;;;6.80;;
62056;SDS011;48016;50.284;18.860;2022-09-29T13:29:19;11.40;;;7.70;;
62056;SDS011;48016;50.284;18.860;2022-09-29T13:31:52;12.40;;;8.20;;
62056;SDS011;48016;50.284;18.860;2022-09-29T13:37:06;13.20;;;7.90;;
62056;SDS011;48016;50.284;18.860;2022-09-29T13:39:54;15.30;;;8.70;;
62056;SDS011;48016;50.284;18.860;2022-09-29T13:47:55;14.60;;;7.90;;
62056;SDS011;48016;50.284;18.860;2022-09-29T13:50:44;14.00;;;8.50;;
62056;SDS011;48016;50.284;18.860;2022-09-29T14:01:33;15.10;;;8.80;;
62056;SDS011;48016;50.284;18.860;2022-09-29T14:07:13;14.20;;;9.20;;
62056;SDS011;48016;50.284;18.860;2022-09-29T14:15:40;16.60;;;9.50;;
62056;SDS011;48016;50.284;18.860;2022-09-29T14:21:46;12.40;;;7.70;;
62056;SDS011;48016;50.284;18.860;2022-09-29T14:27:18;13.90;;;8.80;;
62056;SDS011;48016;50.284;18.860;2022-09-29T14:29:57;14.60;;;8.00;;
62056;SDS011;48016;50.284;18.860;2022-09-29T14:35:34;13.70;;;8.80;;
62056;SDS011;48016;50.284;18.860;2022-09-29T14:38:27;11.60;;;7.60;;
62056;SDS011;48016;50.284;18.860;2022-09-29T14:43:39;14.80;;;8.10;;
62056;SDS011;48016;50.284;18.860;2022-09-29T15:03:26;13.50;;;7.70;;
62056;SDS011;48016;50.284;18.860;2022-09-29T15:06:10;14.60;;;7.20;;
62056;SDS011;48016;50.284;18.860;2022-09-29T15:08:41;14.40;;;8.50;;
62056;SDS011;48016;50.284;18.860;2022-09-29T15:13:58;12.50;;;7.00;;
62056;SDS011;48016;50.284;18.860;2022-09-29T15:16:39;11.30;;;6.20;;
62056;SDS011;48016;50.284;18.860;2022-09-29T15:22:18;11.50;;;7.10;;
62056;SDS011;48016;50.284;18.860;2022-09-29T15:27:46;12.80;;;7.90;;
62056;SDS011;48016;50.284;18.860;2022-09-29T15:30:20;15.20;;;8.10;;
62056;SDS011;48016;50.284;18.860;2022-09-29T15:32:52;18.10;;;9.60;;
62056;SDS011;48016;50.284;18.860;2022-09-29T15:35:23;16.90;;;9.70;;
62056;SDS011;48016;50.284;18.860;2022-09-29T15:37:58;20.60;;;10.70;;
62056;SDS011;48016;50.284;18.860;2022-09-29T15:43:37;16.80;;;8.30;;
62056;SDS011;48016;50.284;18.860;2022-09-29T15:46:21;15.90;;;10.60;;
62056;SDS011;48016;50.284;18.860;2022-09-29T15:51:46;22.10;;;13.10;;
62056;SDS011;48016;50.284;18.860;2022-09-29T15:54:29;22.10;;;14.20;;
62056;SDS011;48016;50.284;18.860;2022-09-29T15:57:02;28.10;;;20.60;;
62056;SDS011;48016;50.284;18.860;2022-09-29T15:59:52;21.40;;;13.20;;
62056;SDS011;48016;50.284;18.860;2022-09-29T16:02:27;17.40;;;9.70;;
62056;SDS011;48016;50.284;18.860;2022-09-29T16:05:09;20.80;;;9.90;;
62056;SDS011;48016;50.284;18.860;2022-09-29T16:07:54;18.60;;;10.30;;
62056;SDS011;48016;50.284;18.860;2022-09-29T16:10:32;13.90;;;7.80;;
62056;SDS011;48016;50.284;18.860;2022-09-29T16:13:05;19.00;;;10.30;;
62056;SDS011;48016;50.284;18.860;2022-09-29T16:15:46;21.50;;;11.90;;
62056;SDS011;48016;50.284;18.860;2022-09-29T16:20:57;29.00;;;17.20;;
62056;SDS011;48016;50.284;18.860;2022-09-29T16:23:33;18.80;;;11.40;;
62056;SDS011;48016;50.284;18.860;2022-09-29T16:28:35;23.40;;;13.70;;
62056;SDS011;48016;50.284;18.860;2022-09-29T16:31:17;29.60;;;18.10;;
62056;SDS011;48016;50.284;18.860;2022-09-29T16:33:54;25.20;;;16.00;;
62056;SDS011;48016;50.284;18.860;2022-09-29T16:36:26;19.70;;;12.60;;
62056;SDS011;48016;50.284;18.860;2022-09-29T16:39:11;17.10;;;8.90;;
62056;SDS011;48016;50.284;18.860;2022-09-29T16:41:46;16.70;;;7.80;;
62056;SDS011;48016;50.284;18.860;2022-09-29T16:44:21;15.80;;;7.70;;
62056;SDS011;48016;50.284;18.860;2022-09-29T16:49:45;21.90;;;11.80;;
62056;SDS011;48016;50.284;18.860;2022-09-29T16:52:18;24.90;;;15.00;;
62056;SDS011;48016;50.284;18.860;2022-09-29T16:55:17;27.70;;;17.30;;
62056;SDS011;48016;50.284;18.860;2022-09-29T17:00:27;18.10;;;12.00;;
62056;SDS011;48016;50.284;18.860;2022-09-29T17:02:57;19.40;;;12.40;;
62056;SDS011;48016;50.284;18.860;2022-09-29T17:05:26;19.30;;;12.70;;
62056;SDS011;48016;50.284;18.860;2022-09-29T17:07:59;21.30;;;13.30;;
62056;SDS011;48016;50.284;18.860;2022-09-29T17:10:31;22.20;;;11.70;;
62056;SDS011;48016;50.284;18.860;2022-09-29T17:13:03;18.80;;;12.40;;
62056;SDS011;48016;50.284;18.860;2022-09-29T17:15:38;19.00;;;11.30;;
62056;SDS011;48016;50.284;18.860;2022-09-29T17:18:09;20.40;;;11.70;;
62056;SDS011;48016;50.284;18.860;2022-09-29T17:20:41;20.10;;;11.10;;
62056;SDS011;48016;50.284;18.860;2022-09-29T17:23:11;16.90;;;10.80;;
62056;SDS011;48016;50.284;18.860;2022-09-29T17:25:41;16.40;;;10.00;;
62056;SDS011;48016;50.284;18.860;2022-09-29T17:28:17;19.50;;;10.80;;
62056;SDS011;48016;50.284;18.860;2022-09-29T17:30:52;22.70;;;11.20;;
62056;SDS011;48016;50.284;18.860;2022-09-29T17:33:23;23.50;;;12.40;;
62056;SDS011;48016;50.284;18.860;2022-09-29T17:35:54;20.30;;;11.60;;
62056;SDS011;48016;50.284;18.860;2022-09-29T17:38:20;20.70;;;12.10;;
62056;SDS011;48016;50.284;18.860;2022-09-29T17:40:56;22.50;;;11.50;;
62056;SDS011;48016;50.284;18.860;2022-09-29T17:43:37;24.80;;;11.70;;
62056;SDS011;48016;50.284;18.860;2022-09-29T17:46:07;20.50;;;12.10;;
62056;SDS011;48016;50.284;18.860;2022-09-29T17:48:40;18.20;;;11.00;;
62056;SDS011;48016;50.284;18.860;2022-09-29T17:51:11;18.10;;;9.90;;
62056;SDS011;48016;50.284;18.860;2022-09-29T17:53:42;16.50;;;10.00;;
62056;SDS011;48016;50.284;18.860;2022-09-29T17:57:33;14.90;;;8.80;;
62056;SDS011;48016;50.284;18.860;2022-09-29T17:59:59;18.20;;;9.70;;
62056;SDS011;48016;50.284;18.860;2022-09-29T18:02:26;18.50;;;11.50;;
62056;SDS011;48016;50.284;18.860;2022-09-29T18:04:53;20.50;;;11.40;;
62056;SDS011;48016;50.284;18.860;2022-09-29T18:07:20;20.60;;;11.50;;
62056;SDS011;48016;50.284;18.860;2022-09-29T18:09:46;17.00;;;12.20;;
62056;SDS011;48016;50.284;18.860;2022-09-29T18:12:13;20.50;;;11.70;;
62056;SDS011;48016;50.284;18.860;2022-09-29T18:14:39;23.90;;;13.10;;
62056;SDS011;48016;50.284;18.860;2022-09-29T18:17:06;20.90;;;12.80;;
62056;SDS011;48016;50.284;18.860;2022-09-29T18:19:34;22.70;;;13.90;;
62056;SDS011;48016;50.284;18.860;2022-09-29T18:22:06;21.70;;;12.20;;
62056;SDS011;48016;50.284;18.860;2022-09-29T18:24:33;24.10;;;13.20;;
62056;SDS011;48016;50.284;18.860;2022-09-29T18:27:01;18.70;;;12.20;;
62056;SDS011;48016;50.284;18.860;2022-09-29T18:29:28;22.30;;;13.60;;
62056;SDS011;48016;50.284;18.860;2022-09-29T18:31:57;23.50;;;13.50;;
62056;SDS011;48016;50.284;18.860;2022-09-29T18:34:24;21.80;;;13.70;;
62056;SDS011;48016;50.284;18.860;2022-09-29T18:36:56;20.30;;;12.50;;
62056;SDS011;48016;50.284;18.860;2022-09-29T18:39:23;22.80;;;12.20;;
62056;SDS011;48016;50.284;18.860;2022-09-29T18:41:51;21.80;;;12.50;;
62056;SDS011;48016;50.284;18.860;2022-09-29T18:44:18;21.80;;;12.80;;
62056;SDS011;48016;50.284;18.860;2022-09-29T18:46:49;20.80;;;12.60;;
62056;SDS011;48016;50.284;18.860;2022-09-29T18:49:16;23.00;;;14.50;;
62056;SDS011;48016;50.284;18.860;2022-09-29T18:51:44;23.30;;;13.60;;
62056;SDS011;48016;50.284;18.860;2022-09-29T18:54:10;24.70;;;14.90;;
62056;SDS011;48016;50.284;18.860;2022-09-29T18:56:38;26.50;;;15.60;;
62056;SDS011;48016;50.284;18.860;2022-09-29T18:59:05;22.20;;;14.40;;
62056;SDS011;48016;50.284;18.860;2022-09-29T19:01:35;26.10;;;14.50;;